createdAt,value
2017-04-15T00:00:41.943Z,10.01
2017-04-15T00:01:41.893Z,10.04
2017-04-15T00:02:41.784Z,10.07
2017-04-15T00:03:41.610Z,10.04
2017-04-15T00:04:41.843Z,9.98
2017-04-15T00:05:41.796Z,10.08
2017-04-15T00:06:42.128Z,9.92
2017-04-15T00:07:41.471Z,9.9
2017-04-15T00:08:41.744Z,10.08
2017-04-15T00:09:41.421Z,10.07
2017-04-15T00:10:41.399Z,10.19
2017-04-15T00:11:41.371Z,10.15
2017-04-15T00:12:41.651Z,10.07
2017-04-15T00:13:41.652Z,10.03
2017-04-15T00:14:41.483Z,10
2017-04-15T00:15:41.724Z,9.97
2017-04-15T00:16:41.645Z,10
2017-04-15T00:17:42.014Z,10.05
2017-04-15T00:18:41.230Z,10.07
2017-04-15T00:19:41.523Z,10.19
2017-04-15T00:20:41.505Z,10.25
2017-04-15T00:21:41.169Z,10.1
2017-04-15T00:22:41.143Z,10.13
2017-04-15T00:23:41.127Z,10.11
2017-04-15T00:24:41.112Z,10.13
2017-04-15T00:25:41.082Z,10.21
2017-04-15T00:26:41.071Z,10.16
2017-04-15T00:27:41.041Z,10.11
2017-04-15T00:28:41.326Z,10.21
2017-04-15T00:29:40.695Z,10.15
2017-04-15T00:30:40.985Z,10.16
2017-04-15T00:31:41.268Z,10.22
2017-04-15T00:32:41.233Z,10.22
2017-04-15T00:33:41.224Z,10.25
2017-04-15T00:34:41.218Z,10.19
2017-04-15T00:35:41.170Z,10.18
2017-04-15T00:36:40.554Z,10.16
2017-04-15T00:37:40.832Z,10.08
2017-04-15T00:38:40.813Z,10.1
2017-04-15T00:39:41.132Z,10.04
2017-04-15T00:40:41.063Z,10.03
2017-04-15T00:41:41.044Z,10.18
2017-04-15T00:42:41.026Z,10.18
2017-04-15T00:43:40.402Z,10.05
2017-04-15T00:44:40.984Z,10.19
2017-04-15T00:45:40.980Z,10.25
2017-04-15T00:46:40.775Z,10.19
2017-04-15T00:47:40.945Z,10.25
2017-04-15T00:48:40.922Z,10.25
2017-04-15T00:49:40.574Z,10.22
2017-04-15T00:50:40.853Z,10.29
2017-04-15T00:51:40.835Z,10.16
2017-04-15T00:52:40.826Z,10.15
2017-04-15T00:53:40.845Z,10.15
2017-04-15T00:54:40.793Z,10.19
2017-04-15T00:55:40.573Z,10.16
2017-04-15T00:56:40.124Z,10.21
2017-04-15T00:57:40.725Z,10.33
2017-04-15T00:58:40.704Z,10.36
2017-04-15T00:59:40.665Z,10.33
2017-04-15T01:00:40.342Z,10.25
2017-04-15T01:01:40.623Z,10.26
2017-04-15T01:02:40.617Z,10.21
2017-04-15T01:03:40.584Z,10.1
2017-04-15T01:04:40.563Z,10.13
2017-04-15T01:05:40.540Z,10.21
2017-04-15T01:06:40.226Z,10.18
2017-04-15T01:07:40.519Z,10.26
2017-04-15T01:08:40.173Z,10.25
2017-04-15T01:09:40.153Z,10.28
2017-04-15T01:10:40.126Z,10.25
2017-04-15T01:11:40.431Z,10.15
2017-04-15T01:12:40.094Z,10.19
2017-04-15T01:13:40.067Z,10.3
2017-04-15T01:14:40.046Z,10.25
2017-04-15T01:15:40.336Z,10.23
2017-04-15T01:16:40.003Z,10.25
2017-04-15T01:17:40.345Z,10.3
2017-04-15T01:18:40.263Z,10.4
2017-04-15T01:19:40.003Z,10.37
2017-04-15T01:20:39.926Z,10.34
2017-04-15T01:21:40.228Z,10.36
2017-04-15T01:22:40.173Z,10.13
2017-04-15T01:23:40.165Z,10.18
2017-04-15T01:24:39.832Z,10.22
2017-04-15T01:25:39.825Z,10.29
2017-04-15T01:26:39.802Z,10.15
2017-04-15T01:27:39.879Z,10.15
2017-04-15T01:28:40.051Z,10.16
2017-04-15T01:29:40.092Z,10.25
2017-04-15T01:30:40.022Z,10.25
2017-04-15T01:31:40.046Z,10.28
2017-04-15T01:32:39.975Z,10.3
2017-04-15T01:33:39.653Z,10.34
2017-04-15T01:34:39.932Z,10.37
2017-04-15T01:35:39.912Z,10.34
2017-04-15T01:36:39.904Z,10.34
2017-04-15T01:37:39.882Z,10.25
2017-04-15T01:38:39.911Z,10.28
2017-04-15T01:39:39.883Z,10.28
2017-04-15T01:40:39.509Z,10.34
2017-04-15T01:41:39.809Z,10.34
2017-04-15T01:42:39.451Z,10.4
2017-04-15T01:43:39.752Z,10.3
2017-04-15T01:44:39.753Z,10.34
2017-04-15T01:45:39.712Z,10.29
2017-04-15T01:46:39.431Z,10.38
2017-04-15T01:47:39.411Z,10.26
2017-04-15T01:48:39.036Z,10.25
2017-04-15T01:49:39.662Z,10.26
2017-04-15T01:50:38.971Z,10.29
2017-04-15T01:51:39.626Z,10.37
2017-04-15T01:52:39.299Z,10.34
2017-04-15T01:53:39.603Z,10.33
2017-04-15T01:54:39.254Z,10.28
2017-04-15T01:55:39.592Z,10.23
2017-04-15T01:56:39.163Z,10.22
2017-04-15T01:57:39.180Z,10.23
2017-04-15T01:58:39.533Z,10.19
2017-04-15T01:59:39.476Z,10.22
2017-04-15T02:00:39.071Z,10.19
2017-04-15T02:01:39.062Z,10.28
2017-04-15T02:02:39.102Z,10.3
2017-04-15T02:03:39.012Z,10.28
2017-04-15T02:04:38.997Z,10.33
2017-04-15T02:05:39.281Z,10.43
2017-04-15T02:06:38.952Z,10.34
2017-04-15T02:07:38.634Z,10.43
2017-04-15T02:08:39.301Z,10.43
2017-04-15T02:09:38.880Z,10.37
2017-04-15T02:10:38.866Z,10.34
2017-04-15T02:11:38.540Z,10.29
2017-04-15T02:12:39.200Z,10.41
2017-04-15T02:13:38.807Z,10.28
2017-04-15T02:14:38.792Z,10.4
2017-04-15T02:15:38.762Z,10.4
2017-04-15T02:16:38.762Z,10.4
2017-04-15T02:17:38.722Z,10.47
2017-04-15T02:18:39.001Z,10.47
2017-04-15T02:19:38.679Z,10.47
2017-04-15T02:20:38.743Z,10.34
2017-04-15T02:21:38.949Z,10.36
2017-04-15T02:22:38.962Z,10.47
2017-04-15T02:23:38.593Z,10.48
2017-04-15T02:24:38.574Z,10.44
2017-04-15T02:25:38.874Z,10.55
2017-04-15T02:26:38.842Z,10.38
2017-04-15T02:27:38.521Z,10.53
2017-04-15T02:28:38.489Z,10.55
2017-04-15T02:29:38.482Z,10.55
2017-04-15T02:30:38.772Z,10.52
2017-04-15T02:31:38.732Z,10.52
2017-04-15T02:32:38.411Z,10.57
2017-04-15T02:33:38.383Z,10.53
2017-04-15T02:34:38.674Z,10.55
2017-04-15T02:35:38.092Z,10.52
2017-04-15T02:36:38.321Z,10.55
2017-04-15T02:37:38.612Z,10.57
2017-04-15T02:38:38.596Z,10.36
2017-04-15T02:39:38.572Z,10.3
2017-04-15T02:40:37.941Z,10.25
2017-04-15T02:41:38.534Z,10.33
2017-04-15T02:42:38.503Z,10.3
2017-04-15T02:43:38.182Z,10.34
2017-04-15T02:44:38.151Z,10.3
2017-04-15T02:45:38.543Z,10.41
2017-04-15T02:46:38.422Z,10.43
2017-04-15T02:47:38.093Z,10.46
2017-04-15T02:48:38.081Z,10.47
2017-04-15T02:49:37.752Z,10.46
2017-04-15T02:50:37.731Z,10.48
2017-04-15T02:51:38.039Z,10.37
2017-04-15T02:52:37.981Z,10.33
2017-04-15T02:53:38.363Z,10.08
2017-04-15T02:54:38.247Z,10.21
2017-04-15T02:55:38.285Z,10.33
2017-04-15T02:56:37.915Z,10.21
2017-04-15T02:57:37.915Z,10.21
2017-04-15T02:58:38.172Z,10.26
2017-04-15T02:59:37.839Z,10.3
2017-04-15T03:00:38.126Z,10.28
2017-04-15T03:01:38.214Z,10.21
2017-04-15T03:02:38.102Z,10.05
2017-04-15T03:03:37.761Z,10.21
2017-04-15T03:04:37.734Z,10.16
2017-04-15T03:05:38.020Z,10.11
2017-04-15T03:06:37.392Z,10.07
2017-04-15T03:07:37.364Z,10.08
2017-04-15T03:08:37.972Z,10.15
2017-04-15T03:09:37.673Z,10.15
2017-04-15T03:10:37.605Z,10.1
2017-04-15T03:11:38.012Z,10.18
2017-04-15T03:12:37.253Z,10.19
2017-04-15T03:13:37.550Z,10.21
2017-04-15T03:14:37.223Z,10.15
2017-04-15T03:15:37.202Z,10.21
2017-04-15T03:16:37.478Z,10.22
2017-04-15T03:17:37.471Z,10.21
2017-04-15T03:18:37.738Z,10.13
2017-04-15T03:19:37.721Z,10.13
2017-04-15T03:20:37.702Z,10.15
2017-04-15T03:21:37.682Z,10.11
2017-04-15T03:22:37.663Z,10.11
2017-04-15T03:23:37.343Z,10.22
2017-04-15T03:24:37.321Z,10.16
2017-04-15T03:25:37.304Z,10.13
2017-04-15T03:26:37.569Z,10.28
2017-04-15T03:27:37.557Z,10.25
2017-04-15T03:28:37.592Z,10.3
2017-04-15T03:29:36.995Z,10.4
2017-04-15T03:30:37.199Z,10.34
2017-04-15T03:31:37.471Z,10.15
2017-04-15T03:32:37.464Z,10.21
2017-04-15T03:33:37.172Z,10.07
2017-04-15T03:34:37.412Z,10.15
2017-04-15T03:35:37.393Z,10.13
2017-04-15T03:36:37.364Z,10.34
2017-04-15T03:37:37.082Z,10.3
2017-04-15T03:38:37.326Z,10.37
2017-04-15T03:39:37.301Z,10.38
2017-04-15T03:40:36.983Z,10.36
2017-04-15T03:41:36.963Z,10.37
2017-04-15T03:42:37.254Z,10.3
2017-04-15T03:43:36.902Z,10.26
2017-04-15T03:44:37.192Z,10.36
2017-04-15T03:45:36.909Z,10.26
2017-04-15T03:46:36.542Z,10.3
2017-04-15T03:47:36.830Z,10.28
2017-04-15T03:48:36.505Z,10.26
2017-04-15T03:49:37.103Z,10.19
2017-04-15T03:50:36.850Z,10.28
2017-04-15T03:51:37.053Z,10.33
2017-04-15T03:52:36.417Z,10.34
2017-04-15T03:53:36.714Z,10.29
2017-04-15T03:54:36.677Z,10.25
2017-04-15T03:55:36.353Z,10.21
2017-04-15T03:56:36.946Z,10.26
2017-04-15T03:57:36.924Z,10.34
2017-04-15T03:58:36.904Z,10.33
2017-04-15T03:59:36.885Z,10.37
2017-04-15T04:00:36.582Z,10.34
2017-04-15T04:01:36.838Z,10.36
2017-04-15T04:02:36.601Z,10.33
2017-04-15T04:03:36.516Z,10.3
2017-04-15T04:04:36.475Z,10.3
2017-04-15T04:05:36.453Z,10.34
2017-04-15T04:06:36.435Z,10.33
2017-04-15T04:07:36.423Z,10.34
2017-04-15T04:08:36.081Z,10.34
2017-04-15T04:09:36.063Z,10.33
2017-04-15T04:10:36.376Z,10.33
2017-04-15T04:11:36.628Z,10.46
2017-04-15T04:12:36.311Z,10.38
2017-04-15T04:13:36.592Z,10.43
2017-04-15T04:14:36.266Z,10.4
2017-04-15T04:15:36.244Z,10.47
2017-04-15T04:16:36.529Z,10.46
2017-04-15T04:17:36.503Z,10.37
2017-04-15T04:18:36.173Z,10.36
2017-04-15T04:19:36.158Z,10.38
2017-04-15T04:20:36.453Z,10.4
2017-04-15T04:21:36.424Z,10.4
2017-04-15T04:22:36.097Z,10.37
2017-04-15T04:23:35.763Z,10.33
2017-04-15T04:24:36.364Z,10.34
2017-04-15T04:25:36.333Z,10.3
2017-04-15T04:26:36.324Z,10.3
2017-04-15T04:27:36.314Z,10.37
2017-04-15T04:28:35.984Z,10.4
2017-04-15T04:29:36.259Z,10.41
2017-04-15T04:30:36.235Z,10.37
2017-04-15T04:31:36.206Z,10.33
2017-04-15T04:32:36.186Z,10.28
2017-04-15T04:33:36.182Z,10.23
2017-04-15T04:34:36.165Z,10.3
2017-04-15T04:35:36.125Z,10.3
2017-04-15T04:36:35.795Z,10.29
2017-04-15T04:37:35.904Z,10.29
2017-04-15T04:38:36.103Z,10.18
2017-04-15T04:39:36.042Z,10.21
2017-04-15T04:40:35.723Z,10.36
2017-04-15T04:41:36.007Z,10.33
2017-04-15T04:42:35.974Z,10.25
2017-04-15T04:43:36.007Z,10.16
2017-04-15T04:44:35.930Z,10.25
2017-04-15T04:45:35.606Z,10.13
2017-04-15T04:46:35.653Z,10.23
2017-04-15T04:47:35.463Z,10.25
2017-04-15T04:48:35.542Z,10.15
2017-04-15T04:49:35.834Z,10.22
2017-04-15T04:50:35.803Z,10.19
2017-04-15T04:51:35.794Z,10.25
2017-04-15T04:52:35.765Z,10.08
2017-04-15T04:53:35.756Z,10.13
2017-04-15T04:54:35.733Z,10.13
2017-04-15T04:55:35.703Z,10.16
2017-04-15T04:56:35.375Z,10.36
2017-04-15T04:57:35.663Z,10.34
2017-04-15T04:58:35.334Z,10.36
2017-04-15T04:59:35.311Z,10.15
2017-04-15T05:00:35.303Z,10.15
2017-04-15T05:01:35.594Z,10.15
2017-04-15T05:02:35.253Z,10.1
2017-04-15T05:03:35.126Z,10.21
2017-04-15T05:04:35.548Z,10.05
2017-04-15T05:05:35.193Z,10.1
2017-04-15T05:06:35.164Z,10.04
2017-04-15T05:07:34.944Z,10.13
2017-04-15T05:08:34.822Z,10.05
2017-04-15T05:09:35.124Z,10.07
2017-04-15T05:10:35.393Z,10.05
2017-04-15T05:11:35.374Z,10.05
2017-04-15T05:12:35.342Z,10.11
2017-04-15T05:13:35.422Z,10.07
2017-04-15T05:14:34.993Z,10.11
2017-04-15T05:15:35.282Z,10.11
2017-04-15T05:16:34.963Z,10.16
2017-04-15T05:17:35.247Z,10.11
2017-04-15T05:18:34.983Z,10.1
2017-04-15T05:19:35.197Z,10.13
2017-04-15T05:20:34.862Z,10.16
2017-04-15T05:21:35.166Z,10.13
2017-04-15T05:22:34.511Z,10.01
2017-04-15T05:23:35.123Z,10.01
2017-04-15T05:24:35.102Z,10.11
2017-04-15T05:25:35.073Z,10.04
2017-04-15T05:26:34.434Z,9.93
2017-04-15T05:27:35.022Z,10
2017-04-15T05:28:35.005Z,9.83
2017-04-15T05:29:35.057Z,9.97
2017-04-15T05:30:34.970Z,10.04
2017-04-15T05:31:34.942Z,9.85
2017-04-15T05:32:34.315Z,9.83
2017-04-15T05:33:34.594Z,9.89
2017-04-15T05:34:34.573Z,9.93
2017-04-15T05:35:34.857Z,9.92
2017-04-15T05:36:34.845Z,9.82
2017-04-15T05:37:34.533Z,9.87
2017-04-15T05:38:34.492Z,9.92
2017-04-15T05:39:34.772Z,9.95
2017-04-15T05:40:34.761Z,9.93
2017-04-15T05:41:34.435Z,9.89
2017-04-15T05:42:34.725Z,9.93
2017-04-15T05:43:34.383Z,9.78
2017-04-15T05:44:34.661Z,9.82
2017-04-15T05:45:34.643Z,9.83
2017-04-15T05:46:34.011Z,9.82
2017-04-15T05:47:34.387Z,9.92
2017-04-15T05:48:34.285Z,9.95
2017-04-15T05:49:34.245Z,10.1
2017-04-15T05:50:34.244Z,10.18
2017-04-15T05:51:34.514Z,10.16
2017-04-15T05:52:34.502Z,10.01
2017-04-15T05:53:34.470Z,9.97
2017-04-15T05:54:34.142Z,10.03
2017-04-15T05:55:34.120Z,10.15
2017-04-15T05:56:34.152Z,10.01
2017-04-15T05:57:34.092Z,10.05
2017-04-15T05:58:34.522Z,10.04
2017-04-15T05:59:34.063Z,10.18
2017-04-15T06:00:34.342Z,10.21
2017-04-15T06:01:34.299Z,10.13
2017-04-15T06:02:34.405Z,10.04
2017-04-15T06:03:33.963Z,9.82
2017-04-15T06:04:34.285Z,9.89
2017-04-15T06:05:33.920Z,9.92
2017-04-15T06:06:33.953Z,9.86
2017-04-15T06:07:33.872Z,9.83
2017-04-15T06:08:34.018Z,9.74
2017-04-15T06:09:34.366Z,9.71
2017-04-15T06:10:33.905Z,9.85
2017-04-15T06:11:34.102Z,9.92
2017-04-15T06:12:33.783Z,9.9
2017-04-15T06:13:34.062Z,9.74
2017-04-15T06:14:34.022Z,9.89
2017-04-15T06:15:34.052Z,10
2017-04-15T06:16:34.064Z,9.83
2017-04-15T06:17:33.713Z,9.85
2017-04-15T06:18:33.747Z,9.83
2017-04-15T06:19:34.022Z,10
2017-04-15T06:20:33.676Z,10.04
2017-04-15T06:21:33.885Z,10.04
2017-04-15T06:22:33.964Z,9.93
2017-04-15T06:23:33.853Z,10.03
2017-04-15T06:24:33.524Z,9.9
2017-04-15T06:25:33.442Z,10.03
2017-04-15T06:26:33.514Z,10.07
2017-04-15T06:27:33.770Z,9.93
2017-04-15T06:28:33.834Z,9.93
2017-04-15T06:29:33.803Z,9.87
2017-04-15T06:30:33.694Z,10.01
2017-04-15T06:31:33.043Z,9.95
2017-04-15T06:32:33.775Z,10.01
2017-04-15T06:33:33.406Z,9.93
2017-04-15T06:34:33.685Z,9.98
2017-04-15T06:35:33.610Z,10.03
2017-04-15T06:36:33.572Z,9.92
2017-04-15T06:37:33.293Z,10.01
2017-04-15T06:38:33.274Z,10.21
2017-04-15T06:39:33.199Z,10.04
2017-04-15T06:40:33.594Z,9.98
2017-04-15T06:41:33.152Z,9.93
2017-04-15T06:42:33.441Z,9.86
2017-04-15T06:43:33.464Z,10.01
2017-04-15T06:44:33.080Z,10.1
2017-04-15T06:45:33.502Z,9.95
2017-04-15T06:46:33.352Z,9.87
2017-04-15T06:47:33.395Z,9.95
2017-04-15T06:48:33.415Z,9.87
2017-04-15T06:49:32.981Z,10.01
2017-04-15T06:50:33.389Z,10.05
2017-04-15T06:51:33.363Z,10.08
2017-04-15T06:52:32.915Z,10.01
2017-04-15T06:53:33.272Z,10.04
2017-04-15T06:54:33.180Z,9.95
2017-04-15T06:55:33.174Z,10.05
2017-04-15T06:56:33.156Z,10.1
2017-04-15T06:57:33.148Z,10.15
2017-04-15T06:58:33.102Z,10.21
2017-04-15T06:59:33.142Z,10.15
2017-04-15T07:00:32.764Z,10.13
2017-04-15T07:01:32.873Z,10.16
2017-04-15T07:02:32.756Z,10.18
2017-04-15T07:03:33.002Z,10.1
2017-04-15T07:04:32.991Z,10.11
2017-04-15T07:05:32.653Z,10.16
2017-04-15T07:06:32.644Z,10.15
2017-04-15T07:07:32.970Z,10.18
2017-04-15T07:08:32.582Z,10.15
2017-04-15T07:09:32.258Z,10.11
2017-04-15T07:10:32.842Z,10.13
2017-04-15T07:11:32.982Z,10.21
2017-04-15T07:12:32.808Z,10.23
2017-04-15T07:13:32.597Z,10.23
2017-04-15T07:14:32.482Z,10.33
2017-04-15T07:15:32.883Z,10.23
2017-04-15T07:16:32.759Z,10.33
2017-04-15T07:17:32.425Z,10.33
2017-04-15T07:18:32.705Z,10.3
2017-04-15T07:19:32.474Z,10.36
2017-04-15T07:20:32.433Z,10.37
2017-04-15T07:21:32.007Z,10.28
2017-04-15T07:22:32.274Z,10.33
2017-04-15T07:23:32.661Z,10.28
2017-04-15T07:24:32.560Z,10.18
2017-04-15T07:25:32.575Z,10.15
2017-04-15T07:26:32.198Z,10.18
2017-04-15T07:27:32.518Z,10.19
2017-04-15T07:28:31.856Z,10.15
2017-04-15T07:29:32.134Z,10.21
2017-04-15T07:30:32.135Z,10.21
2017-04-15T07:31:32.105Z,10.3
2017-04-15T07:32:32.385Z,10.34
2017-04-15T07:33:32.065Z,10.3
2017-04-15T07:34:32.351Z,10.36
2017-04-15T07:35:31.715Z,10.47
2017-04-15T07:36:31.992Z,10.4
2017-04-15T07:37:32.302Z,10.23
2017-04-15T07:38:32.062Z,10.18
2017-04-15T07:39:31.941Z,10.28
2017-04-15T07:40:32.223Z,10.28
2017-04-15T07:41:31.900Z,10.41
2017-04-15T07:42:32.182Z,10.43
2017-04-15T07:43:31.864Z,10.56
2017-04-15T07:44:31.953Z,10.53
2017-04-15T07:45:32.211Z,10.37
2017-04-15T07:46:32.121Z,10.36
2017-04-15T07:47:31.770Z,10.3
2017-04-15T07:48:31.852Z,10.37
2017-04-15T07:49:32.036Z,10.53
2017-04-15T07:50:31.812Z,10.53
2017-04-15T07:51:31.972Z,10.47
2017-04-15T07:52:31.980Z,10.52
2017-04-15T07:53:31.640Z,10.52
2017-04-15T07:54:31.923Z,10.59
2017-04-15T07:55:31.613Z,10.6
2017-04-15T07:56:31.277Z,10.63
2017-04-15T07:57:31.248Z,10.56
2017-04-15T07:58:31.864Z,10.63
2017-04-15T07:59:31.523Z,10.72
2017-04-15T08:00:31.536Z,10.92
2017-04-15T08:01:31.781Z,11.03
2017-04-15T08:02:31.459Z,11.06
2017-04-15T08:03:31.845Z,11.11
2017-04-15T08:04:31.440Z,11.11
2017-04-15T08:05:31.711Z,11.11
2017-04-15T08:06:31.691Z,11.24
2017-04-15T08:07:31.663Z,11.33
2017-04-15T08:08:31.392Z,11.33
2017-04-15T08:09:31.632Z,11.36
2017-04-15T08:10:31.603Z,11.35
2017-04-15T08:11:31.291Z,11.21
2017-04-15T08:12:30.945Z,11.21
2017-04-15T08:13:31.284Z,11.32
2017-04-15T08:14:31.237Z,11.33
2017-04-15T08:15:31.221Z,11.46
2017-04-15T08:16:31.481Z,11.36
2017-04-15T08:17:31.460Z,11.35
2017-04-15T08:18:31.553Z,11.28
2017-04-15T08:19:31.428Z,11.31
2017-04-15T08:20:31.412Z,11.4
2017-04-15T08:21:31.382Z,11.46
2017-04-15T08:22:31.389Z,11.48
2017-04-15T08:23:31.039Z,11.48
2017-04-15T08:24:31.022Z,11.58
2017-04-15T08:25:31.303Z,11.57
2017-04-15T08:26:31.293Z,11.58
2017-04-15T08:27:31.277Z,11.65
2017-04-15T08:28:30.927Z,11.69
2017-04-15T08:29:30.919Z,11.72
2017-04-15T08:30:30.895Z,11.69
2017-04-15T08:31:31.197Z,11.6
2017-04-15T08:32:31.168Z,11.58
2017-04-15T08:33:30.842Z,11.71
2017-04-15T08:34:31.154Z,11.71
2017-04-15T08:35:30.802Z,11.76
2017-04-15T08:36:30.782Z,11.83
2017-04-15T08:37:31.082Z,11.79
2017-04-15T08:38:31.051Z,11.81
2017-04-15T08:39:31.031Z,11.81
2017-04-15T08:40:31.026Z,11.84
2017-04-15T08:41:30.993Z,11.94
2017-04-15T08:42:30.661Z,11.89
2017-04-15T08:43:30.753Z,11.94
2017-04-15T08:44:30.944Z,11.91
2017-04-15T08:45:30.612Z,11.97
2017-04-15T08:46:30.579Z,12.1
2017-04-15T08:47:30.868Z,12.09
2017-04-15T08:48:30.855Z,12.02
2017-04-15T08:49:30.529Z,12.1
2017-04-15T08:50:30.504Z,12.13
2017-04-15T08:51:30.501Z,12.17
2017-04-15T08:52:30.477Z,12.21
2017-04-15T08:53:30.451Z,12.27
2017-04-15T08:54:30.131Z,12.17
2017-04-15T08:55:30.732Z,12.35
2017-04-15T08:56:30.702Z,12.37
2017-04-15T08:57:30.683Z,12.48
2017-04-15T08:58:30.387Z,12.67
2017-04-15T08:59:30.663Z,12.67
2017-04-15T09:00:30.342Z,12.71
2017-04-15T09:01:30.301Z,12.79
2017-04-15T09:02:30.603Z,12.88
2017-04-15T09:03:30.280Z,13
2017-04-15T09:04:30.563Z,12.83
2017-04-15T09:05:30.223Z,12.88
2017-04-15T09:06:30.585Z,12.81
2017-04-15T09:07:30.501Z,12.92
2017-04-15T09:08:30.483Z,13.03
2017-04-15T09:09:30.175Z,13.01
2017-04-15T09:10:30.453Z,12.96
2017-04-15T09:11:30.123Z,12.97
2017-04-15T09:12:30.425Z,12.97
2017-04-15T09:13:30.204Z,12.82
2017-04-15T09:14:30.372Z,12.96
2017-04-15T09:15:30.533Z,12.83
2017-04-15T09:16:30.036Z,12.9
2017-04-15T09:17:30.304Z,12.81
2017-04-15T09:18:30.300Z,12.76
2017-04-15T09:19:30.282Z,12.85
2017-04-15T09:20:30.285Z,12.85
2017-04-15T09:21:29.944Z,12.73
2017-04-15T09:22:29.924Z,12.76
2017-04-15T09:23:30.322Z,12.79
2017-04-15T09:24:30.191Z,12.67
2017-04-15T09:25:29.869Z,12.52
2017-04-15T09:26:29.531Z,12.52
2017-04-15T09:27:30.140Z,12.5
2017-04-15T09:28:29.804Z,12.5
2017-04-15T09:29:29.784Z,12.58
2017-04-15T09:30:29.762Z,12.43
2017-04-15T09:31:29.756Z,12.46
2017-04-15T09:32:29.781Z,12.49
2017-04-15T09:33:29.713Z,12.67
2017-04-15T09:34:29.491Z,12.68
2017-04-15T09:35:29.676Z,12.7
2017-04-15T09:36:29.962Z,12.68
2017-04-15T09:37:29.652Z,12.61
2017-04-15T09:38:29.935Z,12.64
2017-04-15T09:39:29.920Z,12.89
2017-04-15T09:40:29.642Z,12.97
2017-04-15T09:41:29.564Z,12.86
2017-04-15T09:42:29.842Z,12.96
2017-04-15T09:43:29.571Z,12.96
2017-04-15T09:44:29.504Z,12.97
2017-04-15T09:45:29.808Z,13
2017-04-15T09:46:29.182Z,12.96
2017-04-15T09:47:29.557Z,12.85
2017-04-15T09:48:29.441Z,12.97
2017-04-15T09:49:29.711Z,12.85
2017-04-15T09:50:29.696Z,12.71
2017-04-15T09:51:29.392Z,12.73
2017-04-15T09:52:29.673Z,12.64
2017-04-15T09:53:29.435Z,12.61
2017-04-15T09:54:29.372Z,12.63
2017-04-15T09:55:29.607Z,12.39
2017-04-15T09:56:29.285Z,12.5
2017-04-15T09:57:29.562Z,12.49
2017-04-15T09:58:29.256Z,12.49
2017-04-15T09:59:29.337Z,12.57
2017-04-15T10:00:29.521Z,12.61
2017-04-15T10:01:29.504Z,12.64
2017-04-15T10:02:29.472Z,12.52
2017-04-15T10:03:29.452Z,12.39
2017-04-15T10:04:29.450Z,12.34
2017-04-15T10:05:29.111Z,12.31
2017-04-15T10:06:29.396Z,12.32
2017-04-15T10:07:29.380Z,12.28
2017-04-15T10:08:29.367Z,12.3
2017-04-15T10:09:29.082Z,12.32
2017-04-15T10:10:29.341Z,12.31
2017-04-15T10:11:28.996Z,12.31
2017-04-15T10:12:29.286Z,12.37
2017-04-15T10:13:29.273Z,12.3
2017-04-15T10:14:28.948Z,12.3
2017-04-15T10:15:28.957Z,12.16
2017-04-15T10:16:28.599Z,12.25
2017-04-15T10:17:29.196Z,12.17
2017-04-15T10:18:29.283Z,12.17
2017-04-15T10:19:29.154Z,12.16
2017-04-15T10:20:29.133Z,12.17
2017-04-15T10:21:29.123Z,12.2
2017-04-15T10:22:29.172Z,12.17
2017-04-15T10:23:29.094Z,12.21
2017-04-15T10:24:29.065Z,12.15
2017-04-15T10:25:28.723Z,12.2
2017-04-15T10:26:29.033Z,12.2
2017-04-15T10:27:28.995Z,12.2
2017-04-15T10:28:28.986Z,12.23
2017-04-15T10:29:28.963Z,12.17
2017-04-15T10:30:28.944Z,12.35
2017-04-15T10:31:28.925Z,12.45
2017-04-15T10:32:28.915Z,12.31
2017-04-15T10:33:28.895Z,12.42
2017-04-15T10:34:28.873Z,12.42
2017-04-15T10:35:28.854Z,12.34
2017-04-15T10:36:28.815Z,12.4
2017-04-15T10:37:28.802Z,12.34
2017-04-15T10:38:28.483Z,12.37
2017-04-15T10:39:28.162Z,12.37
2017-04-15T10:40:28.744Z,12.49
2017-04-15T10:41:28.111Z,12.39
2017-04-15T10:42:28.712Z,12.39
2017-04-15T10:43:28.404Z,12.43
2017-04-15T10:44:28.676Z,12.48
2017-04-15T10:45:28.651Z,12.49
2017-04-15T10:46:28.643Z,12.61
2017-04-15T10:47:28.617Z,12.73
2017-04-15T10:48:28.589Z,12.71
2017-04-15T10:49:28.572Z,12.7
2017-04-15T10:50:28.246Z,12.85
2017-04-15T10:51:28.533Z,12.94
2017-04-15T10:52:28.520Z,12.82
2017-04-15T10:53:28.192Z,13.14
2017-04-15T10:54:28.183Z,13.06
2017-04-15T10:55:28.160Z,13.14
2017-04-15T10:56:28.161Z,13.1
2017-04-15T10:57:28.132Z,13.21
2017-04-15T10:58:28.109Z,13.16
2017-04-15T10:59:28.089Z,13.19
2017-04-15T11:00:28.083Z,13.1
2017-04-15T11:01:28.367Z,13.14
2017-04-15T11:02:28.133Z,13.22
2017-04-15T11:03:28.313Z,13.01
2017-04-15T11:04:28.296Z,13.19
2017-04-15T11:05:28.276Z,13.18
2017-04-15T11:06:28.274Z,13.11
2017-04-15T11:07:28.250Z,13.16
2017-04-15T11:08:28.244Z,13.06
2017-04-15T11:09:27.902Z,13.08
2017-04-15T11:10:27.892Z,13.22
2017-04-15T11:11:27.550Z,13.21
2017-04-15T11:12:27.836Z,13.18
2017-04-15T11:13:27.843Z,13.22
2017-04-15T11:14:27.545Z,13
2017-04-15T11:15:27.886Z,13.15
2017-04-15T11:16:28.072Z,13.08
2017-04-15T11:17:27.749Z,13.19
2017-04-15T11:18:28.053Z,13.18
2017-04-15T11:19:27.736Z,13.26
2017-04-15T11:20:28.013Z,13.18
2017-04-15T11:21:27.985Z,13.08
2017-04-15T11:22:27.969Z,13.06
2017-04-15T11:23:27.642Z,12.98
2017-04-15T11:24:27.616Z,13.01
2017-04-15T11:25:27.599Z,12.97
2017-04-15T11:26:27.343Z,12.98
2017-04-15T11:27:27.874Z,12.98
2017-04-15T11:28:28.052Z,13.07
2017-04-15T11:29:27.845Z,12.97
2017-04-15T11:30:27.562Z,13
2017-04-15T11:31:27.533Z,12.89
2017-04-15T11:32:27.782Z,12.78
2017-04-15T11:33:27.763Z,12.83
2017-04-15T11:34:27.212Z,12.9
2017-04-15T11:35:27.743Z,12.97
2017-04-15T11:36:27.708Z,12.83
2017-04-15T11:37:27.685Z,12.76
2017-04-15T11:38:27.370Z,12.89
2017-04-15T11:39:27.333Z,12.82
2017-04-15T11:40:27.335Z,12.7
2017-04-15T11:41:27.622Z,12.79
2017-04-15T11:42:27.612Z,12.78
2017-04-15T11:43:27.273Z,12.81
2017-04-15T11:44:27.558Z,12.82
2017-04-15T11:45:27.544Z,12.96
2017-04-15T11:46:27.204Z,13.03
2017-04-15T11:47:27.215Z,13.14
2017-04-15T11:48:27.513Z,13.18
2017-04-15T11:49:27.473Z,13.56
2017-04-15T11:50:27.137Z,13.77
2017-04-15T11:51:27.431Z,13.82
2017-04-15T11:52:27.104Z,13.84
2017-04-15T11:53:27.556Z,13.93
2017-04-15T11:54:27.064Z,13.93
2017-04-15T11:55:27.363Z,14.14
2017-04-15T11:56:26.743Z,14.29
2017-04-15T11:57:27.021Z,14.42
2017-04-15T11:58:27.003Z,14.46
2017-04-15T11:59:27.296Z,14.47
2017-04-15T12:00:27.266Z,14.5
2017-04-15T12:01:27.135Z,14.47
2017-04-15T12:02:27.241Z,14.38
2017-04-15T12:03:27.219Z,14.51
2017-04-15T12:04:27.202Z,14.54
2017-04-15T12:05:27.183Z,14.44
2017-04-15T12:06:26.842Z,14.53
2017-04-15T12:07:27.145Z,14.46
2017-04-15T12:08:27.143Z,14.48
2017-04-15T12:09:26.827Z,14.4
2017-04-15T12:10:27.115Z,14.47
2017-04-15T12:11:27.090Z,14.26
2017-04-15T12:12:27.073Z,14.15
2017-04-15T12:13:27.056Z,13.96
2017-04-15T12:14:27.044Z,13.82
2017-04-15T12:15:27.021Z,13.71
2017-04-15T12:16:26.681Z,13.78
2017-04-15T12:17:26.970Z,13.66
2017-04-15T12:18:26.665Z,13.63
2017-04-15T12:19:26.972Z,13.65
2017-04-15T12:20:26.965Z,13.56
2017-04-15T12:21:26.608Z,13.59
2017-04-15T12:22:26.596Z,13.44
2017-04-15T12:23:26.864Z,13.66
2017-04-15T12:24:26.848Z,13.84
2017-04-15T12:25:26.828Z,13.99
2017-04-15T12:26:26.583Z,14.2
2017-04-15T12:27:26.814Z,14.17
2017-04-15T12:28:26.164Z,14.25
2017-04-15T12:29:26.777Z,14.36
2017-04-15T12:30:26.780Z,14.35
2017-04-15T12:31:26.727Z,14.38
2017-04-15T12:32:26.730Z,14.4
2017-04-15T12:33:26.083Z,14.44
2017-04-15T12:34:26.711Z,14.55
2017-04-15T12:35:26.660Z,14.57
2017-04-15T12:36:26.435Z,14.65
2017-04-15T12:37:26.637Z,14.58
2017-04-15T12:38:26.615Z,14.8
2017-04-15T12:39:26.291Z,14.73
2017-04-15T12:40:26.601Z,14.85
2017-04-15T12:41:26.585Z,14.88
2017-04-15T12:42:26.670Z,15.03
2017-04-15T12:43:26.524Z,14.95
2017-04-15T12:44:26.582Z,14.82
2017-04-15T12:45:25.880Z,14.92
2017-04-15T12:46:26.522Z,14.84
2017-04-15T12:47:26.144Z,14.69
2017-04-15T12:48:26.547Z,14.63
2017-04-15T12:49:26.126Z,14.77
2017-04-15T12:50:26.104Z,14.75
2017-04-15T12:51:26.086Z,14.72
2017-04-15T12:52:26.384Z,14.7
2017-04-15T12:53:26.063Z,14.69
2017-04-15T12:54:26.142Z,14.62
2017-04-15T12:55:26.015Z,14.57
2017-04-15T12:56:25.743Z,14.51
2017-04-15T12:57:26.344Z,14.58